Auburn, Illinois
Current Conditions -  °F | °C
As of 2:52 PM on Wednesday 17 Dec 2014 (Local Time) from KSPI Reporting Station
Clear Clear  
Wind Chill: 18°   Ceiling: Unl
Heat Index: 26°   Visibility: 10mi
Dew Point: 19°   Wind: 8mph
Humidity: 75%   Direction: 300°WNW
Pressure: 30.29"   Gusts: NA
Location:  39.59°N, 89.75°W
Report Text: KSPI 172052Z 30007KT 10SM CLR M03/M07 A3029 RMK AO2 SLP266 T10331072 56008
Loading
Personal Weather Stations






























Interactive Weather Map New forecast layout! Learn more

10-Day Weather Forecast

Advertisements
Track Severe Weather on mobile